Flight Track Log - Related Links

Times and Time Zones

All times are in EDT time to prevent confusion due to time zone crossing. See the UAL4191 flight status page for this flight to view local times or setup timezone preferences in your user account.

Time Position Orientation Groundspeed Altitude Reporting Facility
EDT Latitude Longitude Course Direction KTS MPH feet Rate Location/Type
Sat 08:09:16 PM 40.6833 -74.1667 270° West 133 153 200  Level New York TRACON
Sat 08:10:16 PM 40.6333 -74.1833 194° South 182 209 2,200 2,191 Climbing New York TRACON
Sat 08:11:11 PM 40.6333 -74.2667 270° West 242 278 4,400 2,817 Climbing New York TRACON
Sat 08:12:00 PM 40.6833 -74.5453 270° West  Level FlightAware Approximate
Sat 08:12:11 PM 40.6333 -74.3500 270° West 242 278 7,600  Level New York TRACON
Sat 08:13:00 PM 40.6834 -74.6716 270° West  Level FlightAware Approximate
Sat 08:13:40 PM 40.6367 -74.4767 272° West 261 300 10,800  Level New York Center
Sat 08:14:00 PM 40.6834 -74.7978 270° West  Level FlightAware Approximate
Sat 08:14:41 PM 40.6458 -74.5892 276° West 290 334 12,500  Level New York Center
Sat 08:15:40 PM 40.6550 -74.6883 277° West 312 359 14,800 2,441 Climbing New York Center
Sat 08:16:39 PM 40.6633 -74.8092 275° West 312 359 17,300 2,050 Climbing New York Center
Sat 08:17:40 PM 40.6708 -74.8969 276° West 312 359 18,900 1,563 Climbing New York Center
Sat 08:18:38 PM 40.6458 -75.0131 254° West 312 359 20,400 1,800 Climbing New York Center
Sat 08:19:40 PM 40.6044 -75.1200 243° Southwest 312 359 22,500 2,033 Climbing New York Center
Sat 08:20:39 PM 40.5633 -75.2183 241° Southwest 318 366 24,500 1,831 Climbing New York Center
Sat 08:21:38 PM 40.5219 -75.3194 242° Southwest 318 366 26,100 1,636 Climbing New York Center
Sat 08:22:40 PM 40.4825 -75.4178 242° Southwest 318 366 27,800 1,850 Climbing New York Center
Sat 08:23:38 PM 40.4386 -75.5267 242° Southwest 312 359 29,800 1,765 Climbing New York Center
Sat 08:24:39 PM 40.4017 -75.6194 242° Southwest 307 353 31,300 1,230 Climbing New York Center
Sat 08:25:40 PM 40.3644 -75.7097 242° Southwest 294 338 32,300 1,008 Climbing New York Center
Sat 08:26:38 PM 40.3250 -75.8047 241° Southwest 294 338 33,300 908 Climbing New York Center
Sat 08:27:39 PM 40.2925 -75.8814 241° Southwest 301 346 34,100 934 Climbing New York Center
Sat 08:28:40 PM 40.2503 -75.9869 242° Southwest 301 346 35,200 942 Climbing New York Center
Sat 08:29:40 PM 40.2144 -76.0903 246° West 301 346 36,000 407 Climbing New York Center
Sat 08:30:38 PM 40.1758 -76.2042 246° West 301 346 36,000  Level New York Center
Sat 08:31:38 PM 40.1353 -76.3178 245° Southwest 332 382 36,000  Level New York Center
Sat 08:32:38 PM 40.0942 -76.4339 245° Southwest 350 403 36,000  Level New York Center
Sat 08:33:39 PM 40.0508 -76.5553 245° Southwest 363 418 36,000  Level New York Center
Sat 08:34:39 PM 40.0050 -76.6817 245° Southwest 371 427 36,000  Level New York Center
Sat 08:36:15 PM 39.9297 -76.8767 243° Southwest 383 441 36,000  Level Washington Center
Sat 08:37:16 PM 39.8847 -77.0028 245° Southwest 383 441 36,000  Level Washington Center
Sat 08:38:17 PM 39.8414 -77.1236 245° Southwest 378 435 36,000  Level Washington Center
Sat 08:39:15 PM 39.7939 -77.2469 243° Southwest 378 435 36,000  Level Washington Center
Sat 08:40:16 PM 39.7506 -77.3672 245° Southwest 378 435 36,000  Level Washington Center
Sat 08:41:16 PM 39.7028 -77.4956 244° Southwest 378 435 36,000  Level Washington Center
Sat 08:42:17 PM 39.6592 -77.6186 245° Southwest 378 435 36,000  Level Washington Center
Sat 08:43:16 PM 39.6111 -77.7436 244° Southwest 378 435 36,000  Level Washington Center
Sat 08:44:17 PM 39.5653 -77.8661 244° Southwest 378 435 36,000  Level Washington Center
Sat 08:45:15 PM 39.5189 -77.9911 244° Southwest 378 435 36,000  Level Washington Center
Sat 08:46:15 PM 39.4706 -78.1158 243° Southwest 378 435 36,000  Level Washington Center
Sat 08:47:16 PM 39.4242 -78.2433 245° Southwest 378 435 36,000  Level Washington Center
Sat 08:48:17 PM 39.3733 -78.3675 242° Southwest 384 442 36,000  Level Washington Center
Sat 08:49:15 PM 39.3267 -78.4947 245° Southwest 384 442 36,000  Level Washington Center
Sat 08:50:16 PM 39.2797 -78.6214 244° Southwest 394 453 36,000  Level Washington Center
Sat 08:51:15 PM 39.2283 -78.7506 243° Southwest 394 453 36,000  Level Washington Center
Sat 08:52:16 PM 39.1792 -78.8769 243° Southwest 394 453 36,000  Level Washington Center
Sat 08:53:16 PM 39.1300 -79.0006 243° Southwest 394 453 36,000  Level Washington Center
Sat 08:54:16 PM 39.0803 -79.1294 244° Southwest 399 459 36,000  Level Washington Center
Sat 08:55:17 PM 39.0306 -79.2553 243° Southwest 394 453 36,000  Level Washington Center
Sat 08:56:16 PM 38.9786 -79.3833 242° Southwest 399 459 36,000  Level Washington Center
Sat 08:57:15 PM 38.9308 -79.5117 244° Southwest 399 459 36,000  Level Washington Center
Sat 08:58:16 PM 38.8972 -79.6486 253° West 405 466 36,000  Level Washington Center
Sat 08:59:16 PM 38.8658 -79.7722 252° West 410 472 36,000  Level Washington Center
Sat 09:00:17 PM 38.8317 -79.9089 252° West 410 472 36,000  Level Washington Center
Sat 09:00:59 PM 38.8019 -80.0067 249° West 401 461 36,000  Level Indianapolis Center
Sat 09:02:01 PM 38.7672 -80.1417 252° West 401 461 36,000  Level Indianapolis Center
Sat 09:03:03 PM 38.7325 -80.2775 252° West 401 461 36,000  Level Indianapolis Center
Sat 09:04:03 PM 38.6969 -80.4125 251° West 400 460 36,000  Level Indianapolis Center
Sat 09:05:04 PM 38.6633 -80.5483 252° West 401 461 36,000  Level Indianapolis Center
Sat 09:06:05 PM 38.6278 -80.6817 251° West 400 460 36,000  Level Indianapolis Center
Sat 09:07:06 PM 38.5925 -80.8158 251° West 400 460 36,000  Level Indianapolis Center
Sat 09:08:08 PM 38.5564 -80.9511 251° West 399 459 36,000  Level Indianapolis Center
Sat 09:09:09 PM 38.5214 -81.0853 252° West 400 460 36,000  Level Indianapolis Center
Sat 09:10:11 PM 38.4853 -81.2203 251° West 399 459 36,000  Level Indianapolis Center
Sat 09:11:12 PM 38.4486 -81.3542 251° West 399 459 36,000  Level Indianapolis Center
Sat 09:12:12 PM 38.4128 -81.4900 251° West 399 459 36,000  Level Indianapolis Center
Sat 09:13:15 PM 38.3764 -81.6242 251° West 399 459 36,000  Level Indianapolis Center
Sat 09:14:13 PM 38.3328 -81.7861 251° West 399 459 36,000  Level Indianapolis Center
Sat 09:15:17 PM 38.2953 -81.9197 250° West 399 459 36,000  Level Indianapolis Center
Sat 09:16:18 PM 38.2586 -82.0542 251° West 399 459 36,000  Level Indianapolis Center
Sat 09:17:19 PM 38.2211 -82.1869 250° West 399 459 36,000  Level Indianapolis Center
Sat 09:18:20 PM 38.1844 -82.3206 251° West 399 459 36,000  Level Indianapolis Center
Sat 09:19:20 PM 38.1467 -82.4553 250° West 400 460 36,000  Level Indianapolis Center
Sat 09:20:22 PM 38.1067 -82.5956 250° West 400 460 36,000  Level Indianapolis Center
Sat 09:21:23 PM 38.0700 -82.7278 251° West 400 460 36,000  Level Indianapolis Center
Sat 09:22:23 PM 38.0317 -82.8603 250° West 400 460 36,000  Level Indianapolis Center
Sat 09:23:27 PM 37.9942 -82.9944 251° West 400 460 36,000  Level Indianapolis Center
Sat 09:24:25 PM 37.9478 -83.1233 246° West 407 468 36,000 -295 Level Indianapolis Center
Sat 09:25:29 PM 37.8869 -83.2444 238° Southwest 410 472 35,400 -774 Descending Indianapolis Center
Sat 09:26:29 PM 37.8261 -83.3639 237° Southwest 408 470 34,400 -700 Descending Indianapolis Center
Sat 09:27:29 PM 37.7536 -83.5058 237° Southwest 408 470 34,000 -198 Descending Indianapolis Center
Sat 09:28:30 PM 37.6925 -83.6247 237° Southwest 408 470 34,000  Level Indianapolis Center
Sat 09:29:31 PM 37.6300 -83.7453 237° Southwest 408 470 34,000 -144 Level Indianapolis Center
Sat 09:30:35 PM 37.5681 -83.8642 237° Southwest 408 470 33,700 -624 Descending Indianapolis Center
Sat 09:31:36 PM 37.5044 -83.9858 237° Southwest 409 471 32,700 -992 Descending Indianapolis Center
Sat 09:32:36 PM 37.4419 -84.1064 237° Southwest 410 472 31,700 -992 Descending Indianapolis Center
Sat 09:33:37 PM 37.3775 -84.2292 237° Southwest 417 480 30,700 -934 Descending Indianapolis Center
Sat 09:34:38 PM 37.3117 -84.3547 237° Southwest 425 489 29,800 -738 Descending Indianapolis Center
Sat 09:35:39 PM 37.2453 -84.4783 236° Southwest 426 490 29,200 -585 Descending Indianapolis Center
Sat 09:36:41 PM 37.1806 -84.6019 237° Southwest 426 490 28,600 -634 Descending Indianapolis Center
Sat 09:37:42 PM 37.1022 -84.7486 236° Southwest 430 495 27,900 -787 Descending Indianapolis Center
Sat 09:38:43 PM 37.0350 -84.8753 236° Southwest 431 496 27,000 -934 Descending Indianapolis Center
Sat 09:39:44 PM 36.9694 -84.9967 236° Southwest 429 494 26,000 -1,279 Descending Indianapolis Center
Sat 09:40:45 PM 36.9042 -85.1172 236° Southwest 423 487 24,400 -1,672 Descending Indianapolis Center
Sat 09:41:46 PM 36.8383 -85.2394 236° Southwest 423 487 22,600 -1,475 Descending Indianapolis Center
Sat 09:42:47 PM 36.7742 -85.3575 236° Southwest 419 482 21,400 -1,240 Descending Indianapolis Center
Sat 09:43:47 PM 36.7172 -85.4731 238° Southwest 400 460 20,100 -1,550 Descending Indianapolis Center
Sat 09:44:47 PM 36.6608 -85.5911 239° Southwest 397 457 18,300 -1,778 Descending Indianapolis Center
Sat 09:45:35 PM 36.6172 -85.6858 240° Southwest 397 457 16,900 -1,944 Descending Memphis Center
Sat 09:46:35 PM 36.5633 -85.8000 240° Southwest 390 449 14,800 -2,231 Descending Memphis Center
Sat 09:47:36 PM 36.5078 -85.9161 239° Southwest 374 430 12,400 -2,164 Descending Memphis Center
Sat 09:48:37 PM 36.4569 -86.0231 239° Southwest 363 418 10,400 -1,180 Descending Memphis Center
Sat 09:49:38 PM 36.4125 -86.1139 239° Southwest 312 359 10,000 -1,082 Descending Memphis Center
Sat 09:50:39 PM 36.3767 -86.1911 240° Southwest 264 304 8,200 -1,835 Descending Memphis Center
Sat 09:51:39 PM 36.3467 -86.2719 245° Southwest 259 298 6,300 -1,785 Descending Memphis Center
Sat 09:52:40 PM 36.3150 -86.3497 243° Southwest 253 291 4,600 -1,672 Descending Memphis Center
Sat 09:53:41 PM 36.2869 -86.4253 245° Southwest 244 281 2,900 -1,033 Descending Memphis Center
Sat 09:54:42 PM 36.2608 -86.4939 245° Southwest 225 259 2,500 -198 Descending Memphis Center
Sat 09:55:42 PM 36.2361 -86.5567 244° Southwest 206 237 2,500 -248 Level Memphis Center
Sat 09:56:43 PM 36.2142 -86.6142 245° Southwest 189 217 2,000 -393 Descending Memphis Center
Sat 09:57:44 PM 36.1861 -86.6392 216° Southwest 135 155 1,700 -541 Descending Memphis Center
Sat 09:58:45 PM 36.1489 -86.6531 197° South 135 155 900 -496 Descending Memphis Center
Sat 09:59:45 PM 36.1081 -86.6689 197° South 135 155 700 -200 Descending Memphis Center

Login

Don't have an account? Register now (free) for customized features, flight alerts, and more!